K-storm — V2DV8 — position and weather

sailwx.info

Track history (hours):
 
Tides and Currents Weather Stations Pressure Air Temp Water Temp Dewpoint Dewpoint Depression Visibility Wind Speed Wind Dir Waves Ship Positions

K-storm

Last reported at 2016-Feb-09 10:03 UTC. Time now 2016-Feb-13 06:52 UTC.
Position N 25°27' W 079°40'.

Length 139 m; draft 7.2 m.

Type: Cargo ship. MMSI: 305350000.

Date/timePositionNaut miles runAvg speedWind from/ knotsBaromVisibWave heightAir tempDewpointWater temp
2016-Feb-09 10:03N 25°27' W 079°40'712.6
2016-Feb-09 09:31N 25°34' W 079°41'1111.7
2016-Feb-09 08:33N 25°45' W 079°43'1212.3
2016-Feb-09 07:33N 25°54' W 079°52'1312.7
2016-Feb-09 06:33N 26°04' W 080°01'5 5.1
2016-Feb-09 05:31N 26°04' W 080°07'0 0.0
2016-Feb-09 04:33N 26°04' W 080°07'0 0.0
2016-Feb-09 03:33N 26°04' W 080°07'0 0.0
2016-Feb-09 02:32N 26°04' W 080°07'0 0.0
2016-Feb-09 01:32N 26°04' W 080°07'0 0.0
2016-Feb-09 00:32N 26°04' W 080°07'0 0.0
2016-Feb-08 23:31N 26°04' W 080°07'0 0.0
2016-Feb-08 22:31N 26°04' W 080°07'0 0.0
2016-Feb-08 21:33N 26°04' W 080°07'0 0.0
2016-Feb-08 20:33N 26°04' W 080°07'0 0.0
2016-Feb-08 19:32N 26°04' W 080°07'0 0.0
2016-Feb-08 18:32N 26°04' W 080°07'0 0.0
2016-Feb-08 17:32N 26°04' W 080°07'0 0.0
2016-Feb-08 16:31N 26°04' W 080°07'0 0.0
2016-Feb-08 15:28N 26°04' W 080°07'1 1.0
2016-Feb-08 14:33N 26°05' W 080°07'5 5.4
2016-Feb-08 13:33N 26°06' W 080°01'8 7.9
2016-Feb-08 12:33N 25°60' W 079°55'1413.9
2016-Feb-08 11:33N 25°49' W 079°46'1514.8
2016-Feb-08 10:33N 25°35' W 079°39'  
2016-Feb-02 07:33N 25°34' W 079°41'1312.9
2016-Feb-02 06:33N 25°46' W 079°45'1414.4
2016-Feb-02 05:34N 25°55' W 079°57'1313.3
2016-Feb-02 04:33N 26°06' W 080°06'2 1.7
2016-Feb-02 03:33N 26°04' W 080°07'0 0.0
2016-Feb-02 02:33N 26°04' W 080°07'0 0.0
2016-Feb-02 01:29N 26°04' W 080°07'0 0.0
2016-Feb-02 00:32N 26°04' W 080°07'0 0.0
2016-Feb-01 23:32N 26°04' W 080°07'0 0.0
2016-Feb-01 22:31N 26°04' W 080°07'0 0.0
2016-Feb-01 21:31N 26°04' W 080°07'0 0.0
2016-Feb-01 20:30N 26°04' W 080°07'0 0.0
2016-Feb-01 19:33N 26°04' W 080°07'0 0.0
2016-Feb-01 18:32N 26°04' W 080°07'0 0.0
2016-Feb-01 17:32N 26°04' W 080°07'0 0.0
2016-Feb-01 16:31N 26°04' W 080°07'0 0.0
2016-Feb-01 15:31N 26°04' W 080°07'0 0.0
2016-Feb-01 14:33N 26°04' W 080°07'4 3.7
2016-Feb-01 13:33N 26°06' W 080°04'8 8.0
2016-Feb-01 12:33N 26°08' W 079°55'1010.1
2016-Feb-01 11:33N 25°59' W 079°50'1514.7
2016-Feb-01 10:33N 25°46' W 079°43'  
Track history (hours):
 
Tides and Currents Weather Stations Pressure Air Temp Water Temp Dewpoint Dewpoint Depression Visibility Wind Speed Wind Dir Waves Ship Positions

K-storm

Last reported at 2016-Feb-09 10:03 UTC. Time now 2016-Feb-13 06:52 UTC.
Position N 25°27' W 079°40'.

Length 139 m; draft 7.2 m.

Type: Cargo ship. MMSI: 305350000.

Date/timePositionNaut miles runAvg speedWind from/ knotsBaromVisibWave heightAir tempDewpointWater temp
2016-Feb-09 10:03N 25°27' W 079°40'712.6
2016-Feb-09 09:31N 25°34' W 079°41'1111.7
2016-Feb-09 08:33N 25°45' W 079°43'1212.3
2016-Feb-09 07:33N 25°54' W 079°52'1312.7
2016-Feb-09 06:33N 26°04' W 080°01'5 5.1
2016-Feb-09 05:31N 26°04' W 080°07'0 0.0
2016-Feb-09 04:33N 26°04' W 080°07'0 0.0
2016-Feb-09 03:33N 26°04' W 080°07'0 0.0
2016-Feb-09 02:32N 26°04' W 080°07'0 0.0
2016-Feb-09 01:32N 26°04' W 080°07'0 0.0
2016-Feb-09 00:32N 26°04' W 080°07'0 0.0
2016-Feb-08 23:31N 26°04' W 080°07'0 0.0
2016-Feb-08 22:31N 26°04' W 080°07'0 0.0
2016-Feb-08 21:33N 26°04' W 080°07'0 0.0
2016-Feb-08 20:33N 26°04' W 080°07'0 0.0
2016-Feb-08 19:32N 26°04' W 080°07'0 0.0
2016-Feb-08 18:32N 26°04' W 080°07'0 0.0
2016-Feb-08 17:32N 26°04' W 080°07'0 0.0
2016-Feb-08 16:31N 26°04' W 080°07'0 0.0
2016-Feb-08 15:28N 26°04' W 080°07'1 1.0
2016-Feb-08 14:33N 26°05' W 080°07'5 5.4
2016-Feb-08 13:33N 26°06' W 080°01'8 7.9
2016-Feb-08 12:33N 25°60' W 079°55'1413.9
2016-Feb-08 11:33N 25°49' W 079°46'1514.8
2016-Feb-08 10:33N 25°35' W 079°39'  
2016-Feb-02 07:33N 25°34' W 079°41'1312.9
2016-Feb-02 06:33N 25°46' W 079°45'1414.4
2016-Feb-02 05:34N 25°55' W 079°57'1313.3
2016-Feb-02 04:33N 26°06' W 080°06'2 1.7
2016-Feb-02 03:33N 26°04' W 080°07'0 0.0
2016-Feb-02 02:33N 26°04' W 080°07'0 0.0
2016-Feb-02 01:29N 26°04' W 080°07'0 0.0
2016-Feb-02 00:32N 26°04' W 080°07'0 0.0
2016-Feb-01 23:32N 26°04' W 080°07'0 0.0
2016-Feb-01 22:31N 26°04' W 080°07'0 0.0
2016-Feb-01 21:31N 26°04' W 080°07'0 0.0
2016-Feb-01 20:30N 26°04' W 080°07'0 0.0
2016-Feb-01 19:33N 26°04' W 080°07'0 0.0
2016-Feb-01 18:32N 26°04' W 080°07'0 0.0
2016-Feb-01 17:32N 26°04' W 080°07'0 0.0
2016-Feb-01 16:31N 26°04' W 080°07'0 0.0
2016-Feb-01 15:31N 26°04' W 080°07'0 0.0
2016-Feb-01 14:33N 26°04' W 080°07'4 3.7
2016-Feb-01 13:33N 26°06' W 080°04'8 8.0
2016-Feb-01 12:33N 26°08' W 079°55'1010.1
2016-Feb-01 11:33N 25°59' W 079°50'1514.7
2016-Feb-01 10:33N 25°46' W 079°43'  

Dump ship's entire track history